sensor_id;sensor_type;location;lat;lon;timestamp;temperature;humidity
45233;DHT22;30969;51.052;17.056;2023-08-30T00:00:42;17.80;79.30
45233;DHT22;30969;51.052;17.056;2023-08-30T00:06:07;17.80;79.40
45233;DHT22;30969;51.052;17.056;2023-08-30T00:11:11;17.70;79.60
45233;DHT22;30969;51.052;17.056;2023-08-30T00:16:14;17.80;79.60
45233;DHT22;30969;51.052;17.056;2023-08-30T00:21:21;17.70;80.70
45233;DHT22;30969;51.052;17.056;2023-08-30T00:26:25;17.00;79.20
45233;DHT22;30969;51.052;17.056;2023-08-30T00:31:29;17.70;80.30
45233;DHT22;30969;51.052;17.056;2023-08-30T00:36:34;17.70;80.70
45233;DHT22;30969;51.052;17.056;2023-08-30T00:41:37;17.70;79.90
45233;DHT22;30969;51.052;17.056;2023-08-30T00:46:41;17.70;80.00
45233;DHT22;30969;51.052;17.056;2023-08-30T00:51:46;17.70;80.20
45233;DHT22;30969;51.052;17.056;2023-08-30T00:56:49;17.70;80.20
45233;DHT22;30969;51.052;17.056;2023-08-30T01:01:54;17.70;80.20
45233;DHT22;30969;51.052;17.056;2023-08-30T01:06:59;17.60;80.10
45233;DHT22;30969;51.052;17.056;2023-08-30T01:12:04;17.60;80.00
45233;DHT22;30969;51.052;17.056;2023-08-30T01:17:10;17.60;79.90
45233;DHT22;30969;51.052;17.056;2023-08-30T01:22:19;17.60;80.10
45233;DHT22;30969;51.052;17.056;2023-08-30T01:27:25;17.60;80.00
45233;DHT22;30969;51.052;17.056;2023-08-30T01:32:29;17.60;79.90
45233;DHT22;30969;51.052;17.056;2023-08-30T01:37:36;17.60;80.10
45233;DHT22;30969;51.052;17.056;2023-08-30T01:42:42;17.50;80.40
45233;DHT22;30969;51.052;17.056;2023-08-30T01:47:46;17.60;80.30
45233;DHT22;30969;51.052;17.056;2023-08-30T01:52:51;16.90;79.80
45233;DHT22;30969;51.052;17.056;2023-08-30T01:57:58;17.50;80.00
45233;DHT22;30969;51.052;17.056;2023-08-30T02:03:06;17.50;80.00
45233;DHT22;30969;51.052;17.056;2023-08-30T02:08:12;17.50;80.00
45233;DHT22;30969;51.052;17.056;2023-08-30T02:13:18;17.50;80.10
45233;DHT22;30969;51.052;17.056;2023-08-30T02:18:23;17.40;80.00
45233;DHT22;30969;51.052;17.056;2023-08-30T02:23:28;17.50;80.00
45233;DHT22;30969;51.052;17.056;2023-08-30T02:28:32;17.40;79.90
45233;DHT22;30969;51.052;17.056;2023-08-30T02:33:36;17.50;79.90
45233;DHT22;30969;51.052;17.056;2023-08-30T02:38:40;17.40;79.80
45233;DHT22;30969;51.052;17.056;2023-08-30T02:43:45;17.10;79.70
45233;DHT22;30969;51.052;17.056;2023-08-30T02:48:48;17.50;79.90
45233;DHT22;30969;51.052;17.056;2023-08-30T02:53:51;17.40;79.70
45233;DHT22;30969;51.052;17.056;2023-08-30T02:58:56;17.30;79.80
45233;DHT22;30969;51.052;17.056;2023-08-30T03:04:00;16.90;79.70
45233;DHT22;30969;51.052;17.056;2023-08-30T03:09:03;17.40;80.00
45233;DHT22;30969;51.052;17.056;2023-08-30T03:14:09;17.40;80.20
45233;DHT22;30969;51.052;17.056;2023-08-30T03:19:13;17.50;80.20
45233;DHT22;30969;51.052;17.056;2023-08-30T03:24:19;17.40;80.20
45233;DHT22;30969;51.052;17.056;2023-08-30T03:29:23;17.30;80.10
45233;DHT22;30969;51.052;17.056;2023-08-30T03:34:27;17.30;80.00
45233;DHT22;30969;51.052;17.056;2023-08-30T03:39:31;17.30;80.00
45233;DHT22;30969;51.052;17.056;2023-08-30T03:44:37;17.30;80.00
45233;DHT22;30969;51.052;17.056;2023-08-30T03:49:40;17.30;80.00
45233;DHT22;30969;51.052;17.056;2023-08-30T03:54:44;17.30;80.00
45233;DHT22;30969;51.052;17.056;2023-08-30T03:59:48;17.30;80.10
45233;DHT22;30969;51.052;17.056;2023-08-30T04:04:52;17.30;80.20
45233;DHT22;30969;51.052;17.056;2023-08-30T04:09:55;17.30;80.30
45233;DHT22;30969;51.052;17.056;2023-08-30T04:15:01;17.30;80.30
45233;DHT22;30969;51.052;17.056;2023-08-30T04:20:05;17.30;80.30
45233;DHT22;30969;51.052;17.056;2023-08-30T04:25:09;17.30;80.30
45233;DHT22;30969;51.052;17.056;2023-08-30T04:30:15;17.20;80.40
45233;DHT22;30969;51.052;17.056;2023-08-30T04:35:18;17.20;80.40
45233;DHT22;30969;51.052;17.056;2023-08-30T04:40:21;17.20;80.50
45233;DHT22;30969;51.052;17.056;2023-08-30T04:45:29;17.30;80.60
45233;DHT22;30969;51.052;17.056;2023-08-30T04:50:33;17.30;80.70
45233;DHT22;30969;51.052;17.056;2023-08-30T04:55:36;17.20;80.60
45233;DHT22;30969;51.052;17.056;2023-08-30T05:00:41;17.20;80.70
45233;DHT22;30969;51.052;17.056;2023-08-30T05:05:45;17.20;80.60
45233;DHT22;30969;51.052;17.056;2023-08-30T05:10:48;17.20;80.80
45233;DHT22;30969;51.052;17.056;2023-08-30T05:15:53;17.20;80.90
45233;DHT22;30969;51.052;17.056;2023-08-30T05:20:56;17.20;80.90
45233;DHT22;30969;51.052;17.056;2023-08-30T05:26:00;17.30;80.90
45233;DHT22;30969;51.052;17.056;2023-08-30T05:31:05;17.20;80.90
45233;DHT22;30969;51.052;17.056;2023-08-30T05:36:08;17.20;80.80
45233;DHT22;30969;51.052;17.056;2023-08-30T05:41:12;17.20;80.90
45233;DHT22;30969;51.052;17.056;2023-08-30T05:46:16;17.20;81.00
45233;DHT22;30969;51.052;17.056;2023-08-30T05:51:20;17.20;80.90
45233;DHT22;30969;51.052;17.056;2023-08-30T05:56:23;17.20;81.00
45233;DHT22;30969;51.052;17.056;2023-08-30T06:01:28;17.30;81.00
45233;DHT22;30969;51.052;17.056;2023-08-30T06:06:31;17.30;80.90
45233;DHT22;30969;51.052;17.056;2023-08-30T06:11:35;17.30;81.10
45233;DHT22;30969;51.052;17.056;2023-08-30T06:16:39;17.30;81.00
45233;DHT22;30969;51.052;17.056;2023-08-30T06:21:46;17.30;80.90
45233;DHT22;30969;51.052;17.056;2023-08-30T06:26:49;17.30;80.90
45233;DHT22;30969;51.052;17.056;2023-08-30T06:31:54;17.30;80.80
45233;DHT22;30969;51.052;17.056;2023-08-30T06:36:57;17.30;80.70
45233;DHT22;30969;51.052;17.056;2023-08-30T06:42:01;17.30;80.60
45233;DHT22;30969;51.052;17.056;2023-08-30T06:47:06;17.30;80.70
45233;DHT22;30969;51.052;17.056;2023-08-30T06:52:09;17.40;80.70
45233;DHT22;30969;51.052;17.056;2023-08-30T06:57:13;17.30;80.40
45233;DHT22;30969;51.052;17.056;2023-08-30T07:02:17;17.40;80.10
45233;DHT22;30969;51.052;17.056;2023-08-30T07:07:21;17.40;80.00
45233;DHT22;30969;51.052;17.056;2023-08-30T07:12:25;17.40;80.00
45233;DHT22;30969;51.052;17.056;2023-08-30T07:17:32;17.40;80.30
45233;DHT22;30969;51.052;17.056;2023-08-30T07:22:54;17.40;80.00
45233;DHT22;30969;51.052;17.056;2023-08-30T07:27:58;17.40;80.30
45233;DHT22;30969;51.052;17.056;2023-08-30T07:33:03;17.70;80.20
45233;DHT22;30969;51.052;17.056;2023-08-30T07:38:07;17.40;79.80
45233;DHT22;30969;51.052;17.056;2023-08-30T07:43:12;17.40;79.90
45233;DHT22;30969;51.052;17.056;2023-08-30T07:48:17;17.40;79.80
45233;DHT22;30969;51.052;17.056;2023-08-30T07:53:20;17.40;79.70
45233;DHT22;30969;51.052;17.056;2023-08-30T07:58:23;17.50;79.70
45233;DHT22;30969;51.052;17.056;2023-08-30T08:03:28;17.50;79.50
45233;DHT22;30969;51.052;17.056;2023-08-30T08:08:32;17.60;79.50
45233;DHT22;30969;51.052;17.056;2023-08-30T08:13:35;17.50;79.20
45233;DHT22;30969;51.052;17.056;2023-08-30T08:18:41;17.50;80.10
45233;DHT22;30969;51.052;17.056;2023-08-30T08:23:45;17.50;79.00
45233;DHT22;30969;51.052;17.056;2023-08-30T08:28:53;17.50;79.10
45233;DHT22;30969;51.052;17.056;2023-08-30T08:39:17;17.50;79.20
45233;DHT22;30969;51.052;17.056;2023-08-30T08:44:21;17.60;79.20
45233;DHT22;30969;51.052;17.056;2023-08-30T08:49:25;17.60;79.00
45233;DHT22;30969;51.052;17.056;2023-08-30T08:54:33;17.60;79.00
45233;DHT22;30969;51.052;17.056;2023-08-30T08:59:37;17.60;79.10
45233;DHT22;30969;51.052;17.056;2023-08-30T09:04:41;17.60;79.00
45233;DHT22;30969;51.052;17.056;2023-08-30T09:09:47;17.60;78.60
45233;DHT22;30969;51.052;17.056;2023-08-30T09:14:55;17.60;78.60
45233;DHT22;30969;51.052;17.056;2023-08-30T09:20:04;17.70;78.50
45233;DHT22;30969;51.052;17.056;2023-08-30T09:25:10;17.70;78.40
45233;DHT22;30969;51.052;17.056;2023-08-30T09:30:14;17.70;78.40
45233;DHT22;30969;51.052;17.056;2023-08-30T09:35:18;17.70;78.10
45233;DHT22;30969;51.052;17.056;2023-08-30T09:40:23;17.70;78.10
45233;DHT22;30969;51.052;17.056;2023-08-30T09:45:29;17.70;77.90
45233;DHT22;30969;51.052;17.056;2023-08-30T09:50:34;17.70;77.90
45233;DHT22;30969;51.052;17.056;2023-08-30T09:55:39;17.80;78.00
45233;DHT22;30969;51.052;17.056;2023-08-30T10:00:50;17.60;78.00
45233;DHT22;30969;51.052;17.056;2023-08-30T10:06:10;17.60;77.90
45233;DHT22;30969;51.052;17.056;2023-08-30T10:11:19;17.50;78.30
45233;DHT22;30969;51.052;17.056;2023-08-30T10:16:24;17.70;78.20
45233;DHT22;30969;51.052;17.056;2023-08-30T10:21:30;17.70;78.10
45233;DHT22;30969;51.052;17.056;2023-08-30T10:26:36;17.70;81.60
45233;DHT22;30969;51.052;17.056;2023-08-30T10:31:41;17.60;78.30
45233;DHT22;30969;51.052;17.056;2023-08-30T10:36:45;17.70;78.20
45233;DHT22;30969;51.052;17.056;2023-08-30T10:42:01;17.70;78.20
45233;DHT22;30969;51.052;17.056;2023-08-30T10:47:09;17.70;78.20
45233;DHT22;30969;51.052;17.056;2023-08-30T10:52:21;17.70;78.30
45233;DHT22;30969;51.052;17.056;2023-08-30T10:57:25;17.70;78.30
45233;DHT22;30969;51.052;17.056;2023-08-30T11:02:29;17.70;78.30
45233;DHT22;30969;51.052;17.056;2023-08-30T11:07:32;17.80;78.70
45233;DHT22;30969;51.052;17.056;2023-08-30T11:12:39;17.80;78.10
45233;DHT22;30969;51.052;17.056;2023-08-30T11:17:43;17.80;77.90
45233;DHT22;30969;51.052;17.056;2023-08-30T11:22:47;17.80;77.90
45233;DHT22;30969;51.052;17.056;2023-08-30T11:27:52;17.80;78.00
45233;DHT22;30969;51.052;17.056;2023-08-30T11:33:04;17.80;78.10
45233;DHT22;30969;51.052;17.056;2023-08-30T11:38:08;17.80;78.50
45233;DHT22;30969;51.052;17.056;2023-08-30T11:43:14;17.90;79.70
45233;DHT22;30969;51.052;17.056;2023-08-30T11:48:18;17.90;78.70
45233;DHT22;30969;51.052;17.056;2023-08-30T11:53:21;17.90;78.50
45233;DHT22;30969;51.052;17.056;2023-08-30T11:58:27;18.00;79.50
45233;DHT22;30969;51.052;17.056;2023-08-30T12:03:38;18.10;78.10
45233;DHT22;30969;51.052;17.056;2023-08-30T12:08:42;18.10;79.60
45233;DHT22;30969;51.052;17.056;2023-08-30T12:13:47;18.10;77.60
45233;DHT22;30969;51.052;17.056;2023-08-30T12:18:53;18.20;77.70
45233;DHT22;30969;51.052;17.056;2023-08-30T12:23:59;18.10;78.20
45233;DHT22;30969;51.052;17.056;2023-08-30T12:29:05;18.10;77.70
45233;DHT22;30969;51.052;17.056;2023-08-30T12:34:09;18.20;77.80
45233;DHT22;30969;51.052;17.056;2023-08-30T12:39:12;18.20;77.50
45233;DHT22;30969;51.052;17.056;2023-08-30T12:44:18;18.30;77.20
45233;DHT22;30969;51.052;17.056;2023-08-30T12:49:22;18.20;77.00
45233;DHT22;30969;51.052;17.056;2023-08-30T12:54:25;18.30;77.10
45233;DHT22;30969;51.052;17.056;2023-08-30T12:59:31;18.30;76.80
45233;DHT22;30969;51.052;17.056;2023-08-30T13:04:35;18.30;76.90
45233;DHT22;30969;51.052;17.056;2023-08-30T13:09:39;18.30;77.00
45233;DHT22;30969;51.052;17.056;2023-08-30T13:14:45;18.40;77.30
45233;DHT22;30969;51.052;17.056;2023-08-30T13:19:49;18.40;76.30
45233;DHT22;30969;51.052;17.056;2023-08-30T13:24:53;18.40;77.50
45233;DHT22;30969;51.052;17.056;2023-08-30T13:29:59;18.50;76.90
45233;DHT22;30969;51.052;17.056;2023-08-30T13:35:02;18.50;76.40
45233;DHT22;30969;51.052;17.056;2023-08-30T13:40:07;18.80;76.70
45233;DHT22;30969;51.052;17.056;2023-08-30T13:45:12;18.60;76.30
45233;DHT22;30969;51.052;17.056;2023-08-30T13:50:15;18.50;76.40
45233;DHT22;30969;51.052;17.056;2023-08-30T13:55:20;18.60;76.30
45233;DHT22;30969;51.052;17.056;2023-08-30T14:00:24;18.60;76.00
45233;DHT22;30969;51.052;17.056;2023-08-30T14:05:28;18.70;75.70
45233;DHT22;30969;51.052;17.056;2023-08-30T14:10:31;18.70;75.50
45233;DHT22;30969;51.052;17.056;2023-08-30T14:15:36;18.70;75.70
45233;DHT22;30969;51.052;17.056;2023-08-30T14:20:40;18.70;75.90
45233;DHT22;30969;51.052;17.056;2023-08-30T14:25:43;18.80;75.80
45233;DHT22;30969;51.052;17.056;2023-08-30T14:30:48;18.80;75.40
45233;DHT22;30969;51.052;17.056;2023-08-30T14:35:51;18.80;75.00
45233;DHT22;30969;51.052;17.056;2023-08-30T14:40:55;18.80;74.80
45233;DHT22;30969;51.052;17.056;2023-08-30T14:46:00;18.90;74.90
45233;DHT22;30969;51.052;17.056;2023-08-30T14:51:13;18.90;75.20
45233;DHT22;30969;51.052;17.056;2023-08-30T14:56:17;18.90;75.70
45233;DHT22;30969;51.052;17.056;2023-08-30T15:01:22;19.00;75.60
45233;DHT22;30969;51.052;17.056;2023-08-30T15:06:25;19.00;75.30
45233;DHT22;30969;51.052;17.056;2023-08-30T15:11:29;19.00;74.60
45233;DHT22;30969;51.052;17.056;2023-08-30T15:16:33;19.10;74.20
45233;DHT22;30969;51.052;17.056;2023-08-30T15:21:37;19.10;74.00
45233;DHT22;30969;51.052;17.056;2023-08-30T15:26:40;19.10;73.70
45233;DHT22;30969;51.052;17.056;2023-08-30T15:31:45;19.10;73.40
45233;DHT22;30969;51.052;17.056;2023-08-30T15:36:53;19.10;73.50
45233;DHT22;30969;51.052;17.056;2023-08-30T15:41:57;19.10;73.30
45233;DHT22;30969;51.052;17.056;2023-08-30T15:47:02;19.10;73.30
45233;DHT22;30969;51.052;17.056;2023-08-30T15:52:05;19.10;73.20
45233;DHT22;30969;51.052;17.056;2023-08-30T15:57:08;19.00;73.10
45233;DHT22;30969;51.052;17.056;2023-08-30T16:02:14;19.00;73.00
45233;DHT22;30969;51.052;17.056;2023-08-30T16:07:17;19.00;73.20
45233;DHT22;30969;51.052;17.056;2023-08-30T16:12:21;18.30;72.90
45233;DHT22;30969;51.052;17.056;2023-08-30T16:17:25;19.00;73.50
45233;DHT22;30969;51.052;17.056;2023-08-30T16:22:29;19.00;73.50
45233;DHT22;30969;51.052;17.056;2023-08-30T16:27:34;19.00;73.60
45233;DHT22;30969;51.052;17.056;2023-08-30T16:32:39;18.90;74.40
45233;DHT22;30969;51.052;17.056;2023-08-30T16:37:43;18.90;73.70
45233;DHT22;30969;51.052;17.056;2023-08-30T16:42:46;18.90;73.70
45233;DHT22;30969;51.052;17.056;2023-08-30T16:47:52;18.90;73.80
45233;DHT22;30969;51.052;17.056;2023-08-30T16:53:08;18.90;73.80
45233;DHT22;30969;51.052;17.056;2023-08-30T16:58:12;18.90;74.10
45233;DHT22;30969;51.052;17.056;2023-08-30T17:03:17;18.90;74.00
45233;DHT22;30969;51.052;17.056;2023-08-30T17:08:22;18.90;74.00
45233;DHT22;30969;51.052;17.056;2023-08-30T17:13:25;18.90;74.00
45233;DHT22;30969;51.052;17.056;2023-08-30T17:18:33;18.90;74.30
45233;DHT22;30969;51.052;17.056;2023-08-30T17:23:39;18.80;74.20
45233;DHT22;30969;51.052;17.056;2023-08-30T17:28:42;18.80;74.10
45233;DHT22;30969;51.052;17.056;2023-08-30T17:33:47;18.80;74.00
45233;DHT22;30969;51.052;17.056;2023-08-30T17:38:51;18.80;74.00
45233;DHT22;30969;51.052;17.056;2023-08-30T17:43:54;18.80;74.00
45233;DHT22;30969;51.052;17.056;2023-08-30T17:48:59;18.80;74.00
45233;DHT22;30969;51.052;17.056;2023-08-30T17:54:03;18.80;74.20
45233;DHT22;30969;51.052;17.056;2023-08-30T17:59:07;18.80;74.00
45233;DHT22;30969;51.052;17.056;2023-08-30T18:04:13;18.70;73.90
45233;DHT22;30969;51.052;17.056;2023-08-30T18:09:16;18.70;73.80
45233;DHT22;30969;51.052;17.056;2023-08-30T18:14:22;18.70;73.80
45233;DHT22;30969;51.052;17.056;2023-08-30T18:19:27;18.60;73.80
45233;DHT22;30969;51.052;17.056;2023-08-30T18:24:33;18.60;73.90
45233;DHT22;30969;51.052;17.056;2023-08-30T18:29:38;18.60;74.10
45233;DHT22;30969;51.052;17.056;2023-08-30T18:34:47;18.80;74.20
45233;DHT22;30969;51.052;17.056;2023-08-30T18:39:50;18.50;74.10
45233;DHT22;30969;51.052;17.056;2023-08-30T18:44:54;18.50;74.20
45233;DHT22;30969;51.052;17.056;2023-08-30T18:49:59;18.50;74.40
45233;DHT22;30969;51.052;17.056;2023-08-30T18:55:03;18.40;74.40
45233;DHT22;30969;51.052;17.056;2023-08-30T19:00:07;20.30;76.20
45233;DHT22;30969;51.052;17.056;2023-08-30T19:05:14;18.40;74.60
45233;DHT22;30969;51.052;17.056;2023-08-30T19:10:18;18.30;74.70
45233;DHT22;30969;51.052;17.056;2023-08-30T19:15:22;18.40;75.30
45233;DHT22;30969;51.052;17.056;2023-08-30T19:20:27;18.30;74.90
45233;DHT22;30969;51.052;17.056;2023-08-30T19:25:31;18.30;75.00
45233;DHT22;30969;51.052;17.056;2023-08-30T19:30:35;18.30;75.30
45233;DHT22;30969;51.052;17.056;2023-08-30T19:35:40;18.30;75.20
45233;DHT22;30969;51.052;17.056;2023-08-30T19:40:48;18.30;75.40
45233;DHT22;30969;51.052;17.056;2023-08-30T19:45:58;18.30;75.50
45233;DHT22;30969;51.052;17.056;2023-08-30T19:51:03;18.30;75.40
45233;DHT22;30969;51.052;17.056;2023-08-30T19:56:07;18.20;75.50
45233;DHT22;30969;51.052;17.056;2023-08-30T20:01:11;18.20;75.60
45233;DHT22;30969;51.052;17.056;2023-08-30T20:06:19;18.20;75.70
45233;DHT22;30969;51.052;17.056;2023-08-30T20:11:22;18.20;75.80
45233;DHT22;30969;51.052;17.056;2023-08-30T20:16:26;18.10;75.80
45233;DHT22;30969;51.052;17.056;2023-08-30T20:21:31;18.10;75.70
45233;DHT22;30969;51.052;17.056;2023-08-30T20:26:35;18.10;75.80
45233;DHT22;30969;51.052;17.056;2023-08-30T20:31:39;18.10;75.80
45233;DHT22;30969;51.052;17.056;2023-08-30T20:36:47;18.10;76.90
45233;DHT22;30969;51.052;17.056;2023-08-30T20:41:52;18.10;75.70
45233;DHT22;30969;51.052;17.056;2023-08-30T20:47:00;18.10;75.80
45233;DHT22;30969;51.052;17.056;2023-08-30T20:52:08;18.10;75.80
45233;DHT22;30969;51.052;17.056;2023-08-30T20:57:12;18.10;76.00
45233;DHT22;30969;51.052;17.056;2023-08-30T21:02:16;19.00;77.30
45233;DHT22;30969;51.052;17.056;2023-08-30T21:07:22;18.00;76.70
45233;DHT22;30969;51.052;17.056;2023-08-30T21:12:26;17.80;75.80
45233;DHT22;30969;51.052;17.056;2023-08-30T21:17:30;18.00;76.40
45233;DHT22;30969;51.052;17.056;2023-08-30T21:22:35;18.00;76.20
45233;DHT22;30969;51.052;17.056;2023-08-30T21:27:38;18.00;76.00
45233;DHT22;30969;51.052;17.056;2023-08-30T21:32:42;17.90;76.00
45233;DHT22;30969;51.052;17.056;2023-08-30T21:37:51;17.90;76.10
45233;DHT22;30969;51.052;17.056;2023-08-30T21:42:54;17.80;76.00
45233;DHT22;30969;51.052;17.056;2023-08-30T21:47:57;17.90;76.10
45233;DHT22;30969;51.052;17.056;2023-08-30T21:53:02;17.80;77.20
45233;DHT22;30969;51.052;17.056;2023-08-30T21:58:06;17.70;76.20
45233;DHT22;30969;51.052;17.056;2023-08-30T22:03:10;17.70;76.30
45233;DHT22;30969;51.052;17.056;2023-08-30T22:08:16;17.70;76.40
45233;DHT22;30969;51.052;17.056;2023-08-30T22:13:20;17.70;76.50
45233;DHT22;30969;51.052;17.056;2023-08-30T22:18:24;17.60;76.50
45233;DHT22;30969;51.052;17.056;2023-08-30T22:23:30;17.60;76.50
45233;DHT22;30969;51.052;17.056;2023-08-30T22:28:34;17.70;76.60
45233;DHT22;30969;51.052;17.056;2023-08-30T22:33:37;17.60;76.70
45233;DHT22;30969;51.052;17.056;2023-08-30T22:38:42;17.60;76.90
45233;DHT22;30969;51.052;17.056;2023-08-30T22:43:46;17.60;76.70
45233;DHT22;30969;51.052;17.056;2023-08-30T22:48:50;17.60;76.70
45233;DHT22;30969;51.052;17.056;2023-08-30T22:53:55;17.60;76.70
45233;DHT22;30969;51.052;17.056;2023-08-30T22:59:01;17.50;76.50
45233;DHT22;30969;51.052;17.056;2023-08-30T23:04:05;17.50;76.40
45233;DHT22;30969;51.052;17.056;2023-08-30T23:09:11;17.50;76.50
45233;DHT22;30969;51.052;17.056;2023-08-30T23:14:15;17.50;76.50
45233;DHT22;30969;51.052;17.056;2023-08-30T23:19:18;17.50;76.50
45233;DHT22;30969;51.052;17.056;2023-08-30T23:24:23;17.50;76.50
45233;DHT22;30969;51.052;17.056;2023-08-30T23:29:26;17.50;76.60
45233;DHT22;30969;51.052;17.056;2023-08-30T23:34:30;17.50;76.60
45233;DHT22;30969;51.052;17.056;2023-08-30T23:39:35;17.40;76.60
45233;DHT22;30969;51.052;17.056;2023-08-30T23:44:38;17.40;76.50
45233;DHT22;30969;51.052;17.056;2023-08-30T23:49:41;17.40;76.50
45233;DHT22;30969;51.052;17.056;2023-08-30T23:54:46;17.40;76.50
45233;DHT22;30969;51.052;17.056;2023-08-30T23:59:49;17.40;76.50
